createdAt,value
2019-06-26T00:00:26.161Z,3.90
2019-06-26T00:02:58.173Z,3.70
2019-06-26T00:05:30.508Z,4.50
2019-06-26T00:08:02.752Z,4.13
2019-06-26T00:10:34.748Z,3.90
2019-06-26T00:13:06.964Z,3.73
2019-06-26T00:15:38.933Z,3.73
2019-06-26T00:18:10.925Z,4.23
2019-06-26T00:20:42.985Z,4.07
2019-06-26T00:23:15.211Z,4.13
2019-06-26T00:25:47.225Z,4.03
2019-06-26T00:28:19.219Z,3.77
2019-06-26T00:30:51.173Z,4.13
2019-06-26T00:33:23.139Z,3.90
2019-06-26T00:35:55.120Z,4.20
2019-06-26T00:38:27.171Z,4.73
2019-06-26T00:40:59.219Z,4.20
2019-06-26T00:43:41.994Z,4.50
2019-06-26T00:46:05.128Z,4.43
2019-06-26T00:48:37.147Z,4.30
2019-06-26T00:51:09.089Z,4.77
2019-06-26T00:53:41.465Z,4.77
2019-06-26T00:56:13.775Z,4.47
2019-06-26T00:58:45.823Z,4.40
2019-06-26T01:01:18.203Z,4.63
2019-06-26T01:03:51.797Z,4.50
2019-06-26T01:06:41.581Z,4.63
2019-06-26T01:09:15.364Z,5.03
2019-06-26T01:11:47.782Z,4.30
2019-06-26T01:14:19.725Z,4.50
2019-06-26T01:16:51.702Z,4.23
2019-06-26T01:22:19.568Z,4.43
2019-06-26T01:24:51.551Z,4.90
2019-06-26T01:27:23.527Z,4.60
2019-06-26T01:29:55.575Z,5.13
2019-06-26T01:32:27.550Z,4.47
2019-06-26T01:34:59.594Z,4.87
2019-06-26T01:37:31.625Z,4.70
2019-06-26T01:40:05.241Z,5.07
2019-06-26T01:42:37.193Z,4.90
2019-06-26T01:45:09.834Z,4.57
2019-06-26T01:47:41.865Z,4.63
2019-06-26T01:50:14.603Z,4.80
2019-06-26T01:52:46.629Z,4.83
2019-06-26T01:55:18.689Z,5.23
2019-06-26T01:57:50.662Z,4.63
2019-06-26T02:00:23.139Z,4.50
2019-06-26T02:02:55.406Z,5.00
2019-06-26T02:05:27.445Z,5.17
2019-06-26T02:07:59.398Z,4.67
2019-06-26T02:10:31.435Z,4.97
2019-06-26T02:13:03.364Z,4.90
2019-06-26T02:15:35.361Z,5.03
2019-06-26T02:18:08.927Z,4.90
2019-06-26T02:20:40.889Z,4.77
2019-06-26T02:23:13.154Z,4.97
2019-06-26T02:25:45.205Z,5.33
2019-06-26T02:28:17.343Z,5.27
2019-06-26T02:30:49.755Z,5.50
2019-06-26T02:33:21.707Z,5.10
2019-06-26T02:35:53.734Z,5.40
2019-06-26T02:38:26.015Z,5.30
2019-06-26T02:40:58.042Z,5.07
2019-06-26T02:43:30.053Z,5.40
2019-06-26T02:46:02.090Z,5.53
2019-06-26T02:48:34.352Z,5.30
2019-06-26T02:51:06.438Z,4.73
2019-06-26T02:53:38.406Z,5.63
2019-06-26T02:56:10.380Z,5.33
2019-06-26T02:58:42.371Z,6.10
2019-06-26T03:01:14.592Z,5.47
2019-06-26T03:03:46.561Z,5.57
2019-06-26T03:06:18.500Z,5.77
2019-06-26T03:08:50.511Z,5.80
2019-06-26T03:11:22.698Z,6.00
2019-06-26T03:13:54.656Z,5.93
2019-06-26T03:16:26.681Z,6.10
2019-06-26T03:18:58.703Z,6.40
2019-06-26T03:21:30.996Z,6.03
2019-06-26T03:24:02.992Z,6.20
2019-06-26T03:26:35.154Z,6.70
2019-06-26T03:29:07.999Z,6.13
2019-06-26T03:31:40.230Z,6.03
2019-06-26T03:34:12.451Z,6.40
2019-06-26T03:36:44.486Z,6.20
2019-06-26T03:39:16.457Z,5.57
2019-06-26T03:41:48.793Z,6.20
2019-06-26T03:44:20.823Z,5.87
2019-06-26T03:46:54.526Z,6.10
2019-06-26T03:49:26.572Z,6.03
2019-06-26T03:51:58.539Z,5.67
2019-06-26T03:54:30.507Z,6.37
2019-06-26T03:57:02.514Z,6.25
2019-06-26T03:59:34.615Z,5.90
2019-06-26T04:02:06.558Z,5.70
2019-06-26T04:04:38.521Z,6.58
2019-06-26T04:07:10.528Z,6.45
2019-06-26T04:09:42.581Z,6.50
2019-06-26T04:12:14.641Z,5.95
2019-06-26T04:14:46.910Z,6.37
2019-06-26T04:17:18.875Z,6.30
2019-06-26T04:19:51.159Z,6.45
2019-06-26T04:22:23.563Z,6.22
2019-06-26T04:24:55.620Z,6.58
2019-06-26T04:27:28.021Z,6.55
2019-06-26T04:29:59.985Z,6.10
2019-06-26T04:32:31.944Z,6.78
2019-06-26T04:35:04.261Z,6.53
2019-06-26T04:37:36.217Z,6.08
2019-06-26T04:40:09.172Z,6.95
2019-06-26T04:42:45.654Z,7.72
2019-06-26T04:45:18.117Z,6.35
2019-06-26T04:47:50.356Z,6.83
2019-06-26T04:50:22.804Z,6.75
2019-06-26T04:52:54.789Z,6.83
2019-06-26T04:55:26.850Z,7.83
2019-06-26T04:57:59.416Z,7.92
2019-06-26T05:00:31.400Z,7.35
2019-06-26T05:03:03.337Z,7.15
2019-06-26T05:05:39.389Z,7.80
2019-06-26T05:08:09.206Z,7.40
2019-06-26T05:10:41.456Z,8.30
2019-06-26T05:13:13.536Z,6.85
2019-06-26T05:15:45.587Z,7.25
2019-06-26T05:18:17.573Z,8.23
2019-06-26T05:20:49.588Z,7.53
2019-06-26T05:23:21.580Z,8.00
2019-06-26T05:25:54.401Z,7.47
2019-06-26T05:28:26.355Z,7.03
2019-06-26T05:30:58.334Z,7.05
2019-06-26T05:33:30.278Z,7.12
2019-06-26T05:36:02.233Z,7.25
2019-06-26T05:38:34.266Z,6.92
2019-06-26T05:41:06.869Z,6.35
2019-06-26T05:43:38.920Z,7.22
2019-06-26T05:46:12.505Z,7.03
2019-06-26T05:48:44.576Z,7.60
2019-06-26T05:51:16.615Z,7.00
2019-06-26T05:53:48.563Z,6.40
2019-06-26T05:56:20.828Z,6.45
2019-06-26T05:58:52.812Z,6.80
2019-06-26T06:01:24.953Z,6.47
2019-06-26T06:03:59.967Z,7.45
2019-06-26T06:06:41.533Z,6.95
2019-06-26T06:09:07.546Z,6.53
2019-06-26T06:11:39.569Z,6.92
2019-06-26T06:14:11.558Z,6.62
2019-06-26T06:16:47.783Z,6.58
2019-06-26T06:19:21.594Z,6.28
2019-06-26T06:21:53.601Z,6.08
2019-06-26T06:24:25.907Z,6.00
2019-06-26T06:26:57.945Z,6.37
2019-06-26T06:29:30.895Z,5.80
2019-06-26T06:32:02.984Z,5.35
2019-06-26T06:34:35.037Z,5.62
2019-06-26T06:37:17.137Z,6.00
2019-06-26T06:39:49.197Z,6.40
2019-06-26T06:42:21.437Z,5.60
2019-06-26T06:44:53.475Z,6.40
2019-06-26T06:47:25.705Z,5.80
2019-06-26T06:49:57.968Z,6.12
2019-06-26T06:52:30.187Z,6.12
2019-06-26T06:55:02.607Z,6.10
2019-06-26T06:57:34.727Z,5.70
2019-06-26T07:00:08.404Z,5.95
2019-06-26T07:02:42.405Z,5.87
2019-06-26T07:05:15.838Z,6.42
2019-06-26T07:07:47.795Z,6.08
2019-06-26T07:10:20.692Z,5.45
2019-06-26T07:12:53.016Z,5.75
2019-06-26T07:15:25.220Z,6.12
2019-06-26T07:17:57.242Z,6.22
2019-06-26T07:20:29.218Z,5.75
2019-06-26T07:23:01.604Z,5.65
2019-06-26T07:25:33.561Z,5.78
2019-06-26T07:28:05.647Z,7.80
2019-06-26T07:30:38.065Z,6.33
2019-06-26T07:33:10.365Z,6.33
2019-06-26T07:35:42.759Z,7.08
2019-06-26T07:38:14.780Z,6.08
2019-06-26T07:40:46.770Z,6.58
2019-06-26T07:43:18.826Z,5.25
2019-06-26T07:45:50.866Z,5.60
2019-06-26T07:48:23.366Z,4.97
2019-06-26T07:50:55.487Z,4.80
2019-06-26T07:53:27.528Z,7.45
2019-06-26T07:55:59.898Z,5.72
2019-06-26T07:58:31.878Z,5.20
2019-06-26T08:01:03.929Z,5.75
2019-06-26T08:03:35.983Z,5.00
2019-06-26T08:06:08.050Z,4.83
2019-06-26T08:08:40.243Z,4.90
2019-06-26T08:11:12.546Z,4.47
2019-06-26T08:13:44.506Z,5.10
2019-06-26T08:16:16.892Z,5.33
2019-06-26T08:18:48.980Z,5.05
2019-06-26T08:21:20.989Z,5.05
2019-06-26T08:23:53.101Z,4.90
2019-06-26T08:26:25.394Z,4.60
2019-06-26T08:28:57.769Z,4.53
2019-06-26T08:31:29.805Z,4.58
2019-06-26T08:34:01.849Z,4.40
2019-06-26T08:36:33.868Z,4.80
2019-06-26T08:39:07.707Z,4.47
2019-06-26T08:41:39.724Z,4.80
2019-06-26T08:44:12.058Z,4.78
2019-06-26T08:46:44.072Z,4.90
2019-06-26T08:49:25.579Z,5.20
2019-06-26T08:51:49.986Z,4.92
2019-06-26T08:54:22.067Z,4.90
2019-06-26T08:56:54.128Z,4.97
2019-06-26T08:59:26.261Z,4.65
2019-06-26T09:01:58.490Z,4.90
2019-06-26T09:04:30.743Z,4.83
2019-06-26T09:07:02.797Z,5.10
2019-06-26T09:09:34.868Z,5.75
2019-06-26T09:12:06.884Z,6.60
2019-06-26T09:14:38.874Z,5.92
2019-06-26T09:17:11.787Z,5.65
2019-06-26T09:19:43.822Z,6.12
2019-06-26T09:22:16.106Z,5.62
2019-06-26T09:24:48.408Z,5.35
2019-06-26T09:27:20.487Z,5.87
2019-06-26T09:29:52.537Z,6.15
2019-06-26T09:32:24.661Z,6.40
2019-06-26T09:34:56.684Z,6.28
2019-06-26T09:37:28.703Z,6.65
2019-06-26T09:40:00.803Z,6.78
2019-06-26T09:42:32.787Z,6.25
2019-06-26T09:45:08.240Z,6.15
2019-06-26T09:47:40.931Z,6.00
2019-06-26T09:50:15.570Z,6.37
2019-06-26T09:52:47.994Z,5.40
2019-06-26T09:55:20.356Z,5.33
2019-06-26T09:57:53.085Z,5.50
2019-06-26T10:00:26.330Z,5.87
2019-06-26T10:02:58.743Z,5.45
2019-06-26T10:05:32.346Z,5.65
2019-06-26T10:08:04.357Z,5.92
2019-06-26T10:10:36.564Z,5.80
2019-06-26T10:13:08.681Z,5.70
2019-06-26T10:15:41.038Z,5.97
2019-06-26T10:18:13.445Z,6.00
2019-06-26T10:20:45.790Z,6.08
2019-06-26T10:23:18.051Z,5.87
2019-06-26T10:25:50.429Z,6.30
2019-06-26T10:28:22.458Z,5.95
2019-06-26T10:30:57.436Z,6.50
2019-06-26T10:33:29.496Z,5.90
2019-06-26T10:36:03.309Z,5.58
2019-06-26T10:38:35.351Z,6.08
2019-06-26T10:41:07.722Z,5.55
2019-06-26T10:43:39.867Z,5.92
2019-06-26T10:46:12.260Z,5.47
2019-06-26T10:48:44.745Z,7.28
2019-06-26T10:51:17.110Z,6.97
2019-06-26T10:53:49.269Z,6.90
2019-06-26T10:56:21.478Z,6.40
2019-06-26T10:58:53.507Z,6.53
2019-06-26T11:01:27.715Z,7.28
2019-06-26T11:04:00.091Z,6.67
2019-06-26T11:06:36.999Z,6.60
2019-06-26T11:09:09.067Z,6.05
2019-06-26T11:11:41.033Z,6.72
2019-06-26T11:14:13.161Z,6.08
2019-06-26T11:16:45.098Z,6.12
2019-06-26T11:19:17.398Z,5.58
2019-06-26T11:21:49.753Z,5.40
2019-06-26T11:24:21.990Z,6.05
2019-06-26T11:26:54.055Z,6.20
2019-06-26T11:29:26.389Z,6.80
2019-06-26T11:31:58.734Z,7.60
2019-06-26T11:34:31.039Z,7.70
2019-06-26T11:37:04.628Z,7.03
2019-06-26T11:39:37.106Z,7.08
2019-06-26T11:42:09.354Z,8.00
2019-06-26T11:44:41.733Z,8.55
2019-06-26T11:47:13.814Z,8.35
2019-06-26T11:49:58.971Z,7.35
2019-06-26T11:52:19.931Z,7.65
2019-06-26T11:55:02.176Z,9.20
2019-06-26T11:57:26.233Z,7.62
2019-06-26T11:59:58.311Z,9.05
2019-06-26T12:02:30.689Z,8.15
2019-06-26T12:05:02.837Z,10.35
2019-06-26T12:07:34.932Z,10.65
2019-06-26T12:10:09.761Z,12.03
2019-06-26T12:12:41.887Z,10.80
2019-06-26T12:15:16.627Z,12.18
2019-06-26T12:17:48.918Z,12.28
2019-06-26T12:20:21.846Z,11.78
2019-06-26T12:22:53.808Z,10.20
2019-06-26T12:25:26.105Z,11.15
2019-06-26T12:27:58.862Z,11.08
2019-06-26T12:30:31.496Z,11.48
2019-06-26T12:33:03.915Z,11.45
2019-06-26T12:35:36.094Z,13.03
2019-06-26T12:38:08.069Z,10.20
2019-06-26T12:40:40.325Z,9.95
2019-06-26T12:43:12.792Z,9.20
2019-06-26T12:45:44.786Z,9.85
2019-06-26T12:48:16.828Z,9.60
2019-06-26T12:50:53.614Z,8.93
2019-06-26T12:53:25.652Z,8.70
2019-06-26T12:55:57.593Z,7.62
2019-06-26T12:58:29.593Z,7.65
2019-06-26T13:01:01.607Z,7.15
2019-06-26T13:03:35.287Z,6.53
2019-06-26T13:06:07.700Z,5.78
2019-06-26T13:08:39.780Z,5.97
2019-06-26T13:11:12.443Z,6.30
2019-06-26T13:13:58.380Z,5.58
2019-06-26T13:16:18.574Z,5.28
2019-06-26T13:18:50.643Z,5.95
2019-06-26T13:21:23.547Z,5.75
2019-06-26T13:23:56.418Z,5.60
2019-06-26T13:26:28.505Z,5.00
2019-06-26T13:29:00.546Z,5.12
2019-06-26T13:31:33.401Z,4.80
2019-06-26T13:34:05.710Z,4.42
2019-06-26T13:36:38.778Z,4.40
2019-06-26T13:39:11.040Z,4.40
2019-06-26T13:41:43.879Z,4.50
2019-06-26T13:44:16.389Z,4.60
2019-06-26T13:46:48.372Z,5.08
2019-06-26T13:49:20.421Z,4.33
2019-06-26T13:51:55.178Z,4.50
2019-06-26T13:54:29.478Z,4.53
2019-06-26T13:57:01.675Z,4.87
2019-06-26T13:59:33.657Z,4.30
2019-06-26T14:02:05.764Z,4.15
2019-06-26T14:04:37.803Z,4.60
2019-06-26T14:07:10.061Z,4.42
2019-06-26T14:09:42.989Z,4.65
2019-06-26T14:12:18.948Z,4.12
2019-06-26T14:14:57.387Z,4.10
2019-06-26T14:17:23.357Z,3.90
2019-06-26T14:19:56.558Z,4.50
2019-06-26T14:22:28.628Z,3.72
2019-06-26T14:25:01.095Z,4.28
2019-06-26T14:27:33.044Z,3.85
2019-06-26T14:30:09.314Z,3.65
2019-06-26T14:32:45.404Z,3.62
2019-06-26T14:35:18.458Z,4.20
2019-06-26T14:37:52.613Z,4.15
2019-06-26T14:40:26.213Z,5.20
2019-06-26T14:42:58.546Z,4.15
2019-06-26T14:45:34.915Z,5.25
2019-06-26T14:48:06.904Z,4.58
2019-06-26T14:50:39.771Z,4.62
2019-06-26T14:53:11.789Z,4.72
2019-06-26T14:55:44.140Z,5.22
2019-06-26T14:58:16.091Z,5.58
2019-06-26T15:00:48.542Z,4.62
2019-06-26T15:03:20.640Z,4.45
2019-06-26T15:05:52.601Z,4.17
2019-06-26T15:08:24.708Z,4.55
2019-06-26T15:10:56.758Z,4.55
2019-06-26T15:13:29.542Z,3.67
2019-06-26T15:16:01.959Z,4.20
2019-06-26T15:18:34.280Z,3.80
2019-06-26T15:21:06.307Z,3.67
2019-06-26T15:23:41.243Z,3.92
2019-06-26T15:26:13.484Z,3.83
2019-06-26T15:28:47.612Z,3.33
2019-06-26T15:31:19.708Z,3.45
2019-06-26T15:33:51.716Z,3.12
2019-06-26T15:36:24.198Z,3.00
2019-06-26T15:38:59.116Z,3.60
2019-06-26T15:41:30.244Z,3.08
2019-06-26T15:44:04.995Z,3.47
2019-06-26T15:46:37.097Z,3.17
2019-06-26T15:49:09.146Z,2.85
2019-06-26T15:51:41.109Z,3.25
2019-06-26T15:54:14.052Z,2.70
2019-06-26T15:56:47.235Z,3.20
2019-06-26T15:59:19.540Z,3.65
2019-06-26T16:01:52.650Z,2.80
2019-06-26T16:04:25.587Z,3.10
2019-06-26T16:06:57.630Z,2.83
2019-06-26T16:09:29.691Z,2.50
2019-06-26T16:12:01.711Z,2.77
2019-06-26T16:14:34.087Z,3.05
2019-06-26T16:17:11.048Z,2.85
2019-06-26T16:19:43.097Z,2.95
2019-06-26T16:22:27.789Z,3.10
2019-06-26T16:24:48.816Z,3.10
2019-06-26T16:27:20.777Z,3.42
2019-06-26T16:29:52.761Z,3.00
2019-06-26T16:32:24.869Z,2.70
2019-06-26T16:34:56.973Z,3.37
2019-06-26T16:37:29.123Z,3.08
2019-06-26T16:40:01.797Z,3.20
2019-06-26T16:42:34.326Z,2.70
2019-06-26T16:45:08.163Z,2.42
2019-06-26T16:47:40.195Z,3.08
2019-06-26T16:50:13.466Z,2.60
2019-06-26T16:52:49.570Z,2.65
2019-06-26T16:55:19.626Z,3.10
2019-06-26T16:57:54.249Z,2.87
2019-06-26T17:00:26.067Z,2.87
2019-06-26T17:02:58.074Z,2.83
2019-06-26T17:05:30.533Z,3.02
2019-06-26T17:08:02.787Z,3.12
2019-06-26T17:10:34.760Z,3.35
2019-06-26T17:13:07.382Z,3.30
2019-06-26T17:15:41.373Z,3.70
2019-06-26T17:18:13.363Z,3.40
2019-06-26T17:20:45.928Z,3.58
2019-06-26T17:23:17.967Z,4.10
2019-06-26T17:25:50.054Z,4.10
2019-06-26T17:28:22.018Z,4.03
2019-06-26T17:30:54.219Z,4.47
2019-06-26T17:33:27.123Z,4.15
2019-06-26T17:36:04.754Z,4.95
2019-06-26T17:38:37.638Z,4.20
2019-06-26T17:41:13.303Z,4.80
2019-06-26T17:43:51.822Z,7.12
2019-06-26T17:46:23.892Z,6.60
2019-06-26T17:48:55.933Z,5.20
2019-06-26T17:51:28.314Z,5.27
2019-06-26T17:54:01.057Z,4.85
2019-06-26T17:56:33.908Z,5.47
2019-06-26T17:59:06.956Z,5.80
2019-06-26T18:01:40.609Z,6.07
2019-06-26T18:04:16.356Z,6.10
2019-06-26T18:06:48.944Z,5.80
2019-06-26T18:09:22.115Z,6.50
2019-06-26T18:11:57.220Z,6.17
2019-06-26T18:14:32.392Z,5.90
2019-06-26T18:17:21.152Z,7.33
2019-06-26T18:19:40.633Z,7.53
2019-06-26T18:22:13.278Z,6.87
2019-06-26T18:24:50.660Z,7.50
2019-06-26T18:27:24.563Z,6.87
2019-06-26T18:29:57.843Z,6.60
2019-06-26T18:32:30.454Z,6.97
2019-06-26T18:35:02.626Z,6.77
2019-06-26T18:37:35.948Z,6.67
2019-06-26T18:40:10.974Z,6.43
2019-06-26T18:42:43.237Z,6.27
2019-06-26T18:45:15.676Z,5.90
2019-06-26T18:47:47.615Z,5.20
2019-06-26T18:50:20.597Z,5.63
2019-06-26T18:52:52.854Z,5.20
2019-06-26T18:55:25.972Z,5.33
2019-06-26T18:57:58.256Z,5.27
2019-06-26T19:00:30.686Z,5.87
2019-06-26T19:03:02.920Z,4.50
2019-06-26T19:05:34.924Z,4.40
2019-06-26T19:08:10.005Z,4.30
2019-06-26T19:10:44.597Z,4.30
2019-06-26T19:13:20.119Z,4.23
2019-06-26T19:15:50.633Z,3.60
2019-06-26T19:18:22.594Z,4.03
2019-06-26T19:20:54.630Z,3.50
2019-06-26T19:23:26.897Z,3.30
2019-06-26T19:25:58.908Z,2.83
2019-06-26T19:28:31.214Z,3.20
2019-06-26T19:31:03.279Z,2.97
2019-06-26T19:33:36.405Z,3.10
2019-06-26T19:36:08.341Z,3.20
2019-06-26T19:38:40.387Z,3.17
2019-06-26T19:41:12.370Z,3.00
2019-06-26T19:43:44.475Z,3.40
2019-06-26T19:46:16.511Z,3.60
2019-06-26T19:48:48.612Z,2.90
2019-06-26T19:51:20.579Z,3.00
2019-06-26T19:53:52.540Z,3.27
2019-06-26T19:56:24.633Z,3.13
2019-06-26T19:58:56.972Z,2.97
2019-06-26T20:01:29.022Z,3.37
2019-06-26T20:04:01.007Z,3.00
2019-06-26T20:06:32.959Z,3.10
2019-06-26T20:09:06.878Z,3.40
2019-06-26T20:11:41.255Z,3.27
2019-06-26T20:14:13.310Z,3.70
2019-06-26T20:16:45.347Z,3.20
2019-06-26T20:19:17.430Z,4.33
2019-06-26T20:21:49.438Z,3.57
2019-06-26T20:24:43.347Z,3.90
2019-06-26T20:27:05.335Z,4.00
2019-06-26T20:29:37.375Z,4.65
2019-06-26T20:32:09.448Z,3.90
2019-06-26T20:34:41.471Z,3.90
2019-06-26T20:37:13.461Z,3.93
2019-06-26T20:39:45.549Z,3.57
2019-06-26T20:42:17.594Z,4.03
2019-06-26T20:44:51.725Z,4.90
2019-06-26T20:47:24.089Z,4.27
2019-06-26T20:49:56.177Z,4.50
2019-06-26T20:52:28.229Z,4.27
2019-06-26T20:55:02.411Z,4.43
2019-06-26T20:57:33.894Z,4.13
2019-06-26T21:00:08.887Z,4.50
2019-06-26T21:02:41.321Z,4.43
2019-06-26T21:05:13.783Z,4.13
2019-06-26T21:07:45.731Z,5.00
2019-06-26T21:10:18.262Z,3.60
2019-06-26T21:12:50.401Z,3.70
2019-06-26T21:15:23.150Z,3.83
2019-06-26T21:17:55.307Z,3.27
2019-06-26T21:20:27.466Z,3.90
2019-06-26T21:23:01.231Z,3.80
2019-06-26T21:25:37.153Z,4.00
2019-06-26T21:28:11.170Z,3.93
2019-06-26T21:30:43.217Z,3.60
2019-06-26T21:33:19.146Z,3.70
2019-06-26T21:35:51.418Z,3.63
2019-06-26T21:38:23.378Z,3.17
2019-06-26T21:40:55.353Z,2.93
2019-06-26T21:43:27.323Z,2.77
2019-06-26T21:45:59.529Z,3.43
2019-06-26T21:48:31.534Z,3.00
2019-06-26T21:51:06.674Z,3.10
2019-06-26T21:53:41.813Z,2.70
2019-06-26T21:56:15.468Z,3.00
2019-06-26T21:58:47.427Z,3.03
2019-06-26T22:01:19.400Z,2.80
2019-06-26T22:03:51.896Z,3.13
2019-06-26T22:06:25.960Z,2.97
2019-06-26T22:08:58.054Z,3.23
2019-06-26T22:11:30.207Z,3.03
2019-06-26T22:14:02.322Z,2.67
2019-06-26T22:16:34.282Z,3.03
2019-06-26T22:19:06.361Z,3.20
2019-06-26T22:21:38.357Z,2.83
2019-06-26T22:24:10.514Z,3.00
2019-06-26T22:26:43.131Z,2.63
2019-06-26T22:29:15.091Z,3.17
2019-06-26T22:31:47.494Z,3.00
2019-06-26T22:34:19.593Z,3.07
2019-06-26T22:36:52.352Z,3.30
2019-06-26T22:39:24.569Z,2.90
2019-06-26T22:41:56.602Z,3.27
2019-06-26T22:44:28.853Z,2.70
2019-06-26T22:47:00.847Z,3.30
2019-06-26T22:49:32.889Z,3.23
2019-06-26T22:52:04.989Z,3.00
2019-06-26T22:54:36.930Z,3.27
2019-06-26T22:57:08.958Z,3.20
2019-06-26T22:59:44.609Z,2.93
2019-06-26T23:02:16.720Z,2.93
2019-06-26T23:04:48.696Z,3.33
2019-06-26T23:07:20.792Z,2.80
2019-06-26T23:09:52.834Z,3.00
2019-06-26T23:12:25.137Z,3.50
2019-06-26T23:14:57.181Z,2.90
2019-06-26T23:17:29.147Z,3.30
2019-06-26T23:20:01.118Z,3.03
2019-06-26T23:22:33.129Z,3.60
2019-06-26T23:25:06.929Z,3.00
2019-06-26T23:27:39.029Z,3.40
2019-06-26T23:30:21.802Z,2.83
2019-06-26T23:32:54.029Z,3.00
2019-06-26T23:35:26.023Z,3.10
2019-06-26T23:37:57.985Z,2.70
2019-06-26T23:40:30.053Z,3.70
2019-06-26T23:43:02.018Z,2.97
2019-06-26T23:45:33.990Z,2.90
2019-06-26T23:48:05.985Z,3.33
2019-06-26T23:50:37.934Z,3.30
2019-06-26T23:53:10.212Z,2.97
2019-06-26T23:55:42.193Z,3.30
2019-06-26T23:58:14.146Z,3.30
